Terminal Aerodrome Forecast
Issued by NWS

Home | Current Version | Previous Version | Text Only | Print | Product List | Glossary On
Versions: 1 2 3 4 5 6 7 8 9 10 11 12 13 14 15 16 17
000
FTUS45 KBOU 170532
TAFAPA
TAF
KAPA 170532Z 1706/1806 19008KT P6SM FEW120
     FM171500 24006KT P6SM FEW110
     FM171800 36006KT P6SM SCT090 SCT130
     FM180100 25010KT P6SM SCT090 BKN130
     FM180300 21010KT P6SM FEW100 SCT150=

USA.gov is the U.S. government's official web portal to all federal, state and local government web resources and services.